アトランタ の空港の天気 - METARとTAF

ハーツフィールド・ジャクソン・アトランタ国際空港 ( KATL / ATL ) - アメリカ合衆国 ジョージア州アトランタ
飛行場実況気象(Metar)
観測時間05/28 15:52 EDT (05/28 19:52 UTC)
風向・風速南西 6m/s 瞬間風速10m/s
視程10km以上
天気現象
少しの雲 雲底高度 1160m
全天の4割程度の雲 雲底高度 3660m
全天の8割程度の雲 雲底高度 6100m
気温28.9℃
湿度57%
気圧1011hPa
METARKATL 281952Z 23011G19KT 10SM FEW038 SCT120 BKN200 29/19 A2989 RMK AO2 SLP110 T02890194
過去の天気等 Google飛行場航空写真 Wunderground天気予報

過去48時間のMETAR

飛行場予報(TAF)
発表時間: 5/28 15:46 EDT (5/28 19:46 UTC)
予報対象時間: 28日16時 EDT ~ 29日20時 EDT
風向・風速西南西 7m/s 瞬間風速 11m/s
視程10km以上
少しの雲 雲底高度 1,520m
全天の8割程度の雲 雲底高度 7,620m
28日21時 EDT から
風向・風速西南西 3m/s
視程10km以上
全天の4割程度の雲 雲底高度 3,050m
全天の4割程度の雲 雲底高度 7,620m
29日10時 EDT から
風向・風速西 5m/s
視程10km以上
全天の4割程度の雲 雲底高度 1,070m
全天の4割程度の雲 雲底高度 4,570m
29日14時 EDT から
風向・風速西 4m/s
視程10km以上
全天の8割程度の雲 雲底高度 1,520m
29日14時 EDT から 確率 30% で
視程6,440m
天気現象弱い雷雨 もや
全天の8割程度の積乱雲 雲底高度 760m
KATL 281946Z 2820/2924 25013G22KT P6SM FEW050 BKN250
FM290100 25006KT P6SM SCT100 SCT250
FM291400 26009KT P6SM SCT035 SCT150
FM291800 26008KT P6SM BKN050
PROB30 2918/2922 4SM -TSRA BR BKN025CB